Time,TemperatureF,DewpointF,PressureIn,WindDirection,WindDirectionDegrees,WindSpeedMPH,WindSpeedGustMPH,Humidity,HourlyPrecipIn,Conditions,Clouds,dailyrainin,SoftwareType,DateUTC
2013-03-07 00:00:00,52.3,43.9,30.17,NW,315,2.0,4.0,73,0.00,,,0.00,meteohub,2013-03-07 05:00:00,
2013-03-07 00:01:00,52.3,43.9,30.17,NW,315,2.0,4.0,73,0.00,,,0.00,meteohub,2013-03-07 05:01:00,
2013-03-07 00:02:00,52.3,43.9,30.17,North,0,4.0,4.0,73,0.00,,,0.00,meteohub,2013-03-07 05:02:00,
2013-03-07 00:07:00,52.3,43.9,30.17,North,0,2.0,5.0,73,0.00,,,0.00,meteohub,2013-03-07 05:07:00,
2013-03-07 00:12:00,52.2,43.7,30.17,North,0,4.0,5.0,73,0.00,,,0.00,meteohub,2013-03-07 05:12:00,
2013-03-07 00:17:00,52.0,43.5,30.17,WSW,248,3.0,5.0,73,0.00,,,0.00,meteohub,2013-03-07 05:17:00,
2013-03-07 00:23:00,52.0,43.5,30.17,West,270,2.0,6.0,73,0.00,,,0.00,meteohub,2013-03-07 05:23:00,
2013-03-07 00:28:00,51.8,43.3,30.17,SW,225,1.0,6.0,73,0.00,,,0.00,meteohub,2013-03-07 05:28:00,
2013-03-07 00:33:00,51.6,43.5,30.17,West,270,0.0,6.0,74,0.00,,,0.00,meteohub,2013-03-07 05:33:00,
2013-03-07 00:38:00,51.4,43.5,30.16,NW,315,0.0,3.0,74,0.00,,,0.00,meteohub,2013-03-07 05:38:00,
2013-03-07 00:43:00,51.3,43.3,30.17,SW,225,0.0,3.0,74,0.00,,,0.00,meteohub,2013-03-07 05:43:00,
2013-03-07 00:48:00,50.9,43.0,30.16,West,270,1.0,3.0,74,0.00,,,0.00,meteohub,2013-03-07 05:48:00,
2013-03-07 00:53:00,50.9,43.3,30.16,SW,225,2.0,2.0,75,0.00,,,0.00,meteohub,2013-03-07 05:53:00,
2013-03-07 00:59:00,50.7,43.2,30.17,North,0,0.0,2.0,75,0.00,,,0.00,meteohub,2013-03-07 05:59:00,
2013-03-07 01:04:00,50.5,43.0,30.17,NW,315,1.0,2.0,75,0.00,,,0.00,meteohub,2013-03-07 06:04:00,
2013-03-07 01:09:00,50.5,43.0,30.17,NW,315,2.0,2.0,75,0.00,,,0.00,meteohub,2013-03-07 06:09:00,
2013-03-07 01:14:00,50.5,43.3,30.17,SW,225,1.0,2.0,76,0.00,,,0.00,meteohub,2013-03-07 06:14:00,
2013-03-07 01:19:00,50.5,43.3,30.17,NE,45,0.0,2.0,76,0.00,,,0.00,meteohub,2013-03-07 06:19:00,
2013-03-07 01:24:00,50.4,43.2,30.17,North,0,0.0,2.0,76,0.00,,,0.00,meteohub,2013-03-07 06:24:00,
2013-03-07 01:29:00,50.4,43.2,30.17,South,180,1.0,2.0,76,0.00,,,0.00,meteohub,2013-03-07 06:29:00,
2013-03-07 01:35:00,50.2,43.0,30.17,East,90,0.0,3.0,76,0.00,,,0.00,meteohub,2013-03-07 06:35:00,
2013-03-07 01:40:00,50.0,42.8,30.17,NW,315,2.0,3.0,76,0.00,,,0.00,meteohub,2013-03-07 06:40:00,
2013-03-07 01:45:00,50.0,43.2,30.17,North,0,0.0,2.0,77,0.00,,,0.00,meteohub,2013-03-07 06:45:00,
2013-03-07 01:50:00,50.0,43.2,30.17,NW,315,2.0,2.0,77,0.00,,,0.00,meteohub,2013-03-07 06:50:00,
2013-03-07 01:55:00,49.8,43.2,30.16,West,270,1.0,2.0,78,0.00,,,0.00,meteohub,2013-03-07 06:55:00,
2013-03-07 02:00:00,49.8,43.2,30.16,SW,225,0.0,2.0,78,0.00,,,0.00,meteohub,2013-03-07 07:00:00,
2013-03-07 02:06:00,49.8,43.5,30.16,NW,315,1.0,2.0,79,0.00,,,0.00,meteohub,2013-03-07 07:06:00,
2013-03-07 02:11:00,49.8,43.5,30.16,South,180,2.0,2.0,79,0.00,,,0.00,meteohub,2013-03-07 07:11:00,
2013-03-07 02:16:00,50.0,43.2,30.16,NW,315,1.0,2.0,77,0.00,,,0.00,meteohub,2013-03-07 07:16:00,
2013-03-07 02:21:00,50.0,42.8,30.16,NW,315,0.0,2.0,76,0.00,,,0.00,meteohub,2013-03-07 07:21:00,
2013-03-07 02:26:00,50.4,42.8,30.16,NW,315,2.0,4.0,75,0.00,,,0.00,meteohub,2013-03-07 07:26:00,
2013-03-07 02:31:00,50.5,42.3,30.16,NW,315,2.0,4.0,73,0.00,,,0.00,meteohub,2013-03-07 07:31:00,
2013-03-07 02:36:00,50.9,41.2,30.16,South,180,2.0,4.0,69,0.00,,,0.00,meteohub,2013-03-07 07:36:00,
2013-03-07 02:42:00,50.9,40.6,30.16,WNW,293,3.0,4.0,68,0.00,,,0.00,meteohub,2013-03-07 07:42:00,
2013-03-07 02:47:00,50.9,39.9,30.16,WSW,248,2.0,5.0,66,0.00,,,0.00,meteohub,2013-03-07 07:47:00,
2013-03-07 02:52:00,50.9,39.6,30.15,South,180,2.0,5.0,65,0.00,,,0.00,meteohub,2013-03-07 07:52:00,
2013-03-07 02:57:00,50.9,38.8,30.15,East,90,2.0,5.0,63,0.00,,,0.00,meteohub,2013-03-07 07:57:00,
2013-03-07 03:02:00,50.9,38.8,30.15,WNW,293,4.0,7.0,63,0.00,,,0.00,meteohub,2013-03-07 08:02:00,
2013-03-07 03:07:00,50.9,38.8,30.15,WNW,293,4.0,7.0,63,0.00,,,0.00,meteohub,2013-03-07 08:07:00,
2013-03-07 03:12:00,50.5,37.9,30.15,West,270,5.0,7.0,62,0.00,,,0.00,meteohub,2013-03-07 08:12:00,
2013-03-07 03:19:00,50.4,37.4,30.15,SW,225,2.0,5.0,61,0.00,,,0.00,meteohub,2013-03-07 08:19:00,
2013-03-07 03:27:00,50.2,37.6,30.15,SW,225,5.0,6.0,62,0.00,,,0.00,meteohub,2013-03-07 08:27:00,
2013-03-07 03:32:00,50.0,37.6,30.15,NW,315,2.0,7.0,62,0.00,,,0.00,meteohub,2013-03-07 08:32:00,
2013-03-07 03:40:00,49.6,37.6,30.15,NW,315,4.0,7.0,63,0.00,,,0.00,meteohub,2013-03-07 08:40:00,
2013-03-07 03:45:00,49.5,37.0,30.15,NW,315,2.0,5.0,62,0.00,,,0.00,meteohub,2013-03-07 08:45:00,
2013-03-07 03:50:00,49.5,36.5,30.15,West,270,5.0,5.0,61,0.00,,,0.00,meteohub,2013-03-07 08:50:00,
2013-03-07 03:55:00,49.3,36.9,30.15,SW,225,5.0,6.0,62,0.00,,,0.00,meteohub,2013-03-07 08:55:00,
2013-03-07 04:01:00,49.1,37.0,30.15,NW,315,3.0,6.0,63,0.00,,,0.00,meteohub,2013-03-07 09:01:00,
2013-03-07 04:06:00,48.7,37.0,30.16,SW,225,3.0,6.0,64,0.00,,,0.00,meteohub,2013-03-07 09:06:00,
2013-03-07 04:11:00,48.7,37.0,30.15,NW,315,6.0,6.0,64,0.00,,,0.00,meteohub,2013-03-07 09:11:00,
2013-03-07 04:16:00,48.6,36.9,30.15,NW,315,1.0,6.0,64,0.00,,,0.00,meteohub,2013-03-07 09:16:00,
2013-03-07 04:22:00,48.4,37.2,30.15,East,90,2.0,6.0,65,0.00,,,0.00,meteohub,2013-03-07 09:22:00,
2013-03-07 04:27:00,48.2,36.7,30.15,NW,315,2.0,6.0,64,0.00,,,0.00,meteohub,2013-03-07 09:27:00,
2013-03-07 04:32:00,48.0,37.2,30.15,West,270,3.0,4.0,66,0.00,,,0.00,meteohub,2013-03-07 09:32:00,
2013-03-07 04:37:00,47.8,37.0,30.16,West,270,2.0,4.0,66,0.00,,,0.00,meteohub,2013-03-07 09:37:00,
2013-03-07 04:42:00,47.7,37.2,30.16,NW,315,2.0,6.0,67,0.00,,,0.00,meteohub,2013-03-07 09:42:00,
2013-03-07 04:47:00,47.5,37.0,30.16,NW,315,1.0,6.0,67,0.00,,,0.00,meteohub,2013-03-07 09:47:00,
2013-03-07 04:53:00,47.1,36.7,30.16,West,270,3.0,6.0,67,0.00,,,0.00,meteohub,2013-03-07 09:53:00,
2013-03-07 04:58:00,47.1,36.7,30.16,NW,315,4.0,4.0,67,0.00,,,0.00,meteohub,2013-03-07 09:58:00,
2013-03-07 05:03:00,47.1,36.7,30.16,NW,315,3.0,3.0,67,0.00,,,0.00,meteohub,2013-03-07 10:03:00,
2013-03-07 05:08:00,46.9,36.5,30.17,NW,315,2.0,4.0,67,0.00,,,0.00,meteohub,2013-03-07 10:08:00,
2013-03-07 05:13:00,46.8,36.3,30.16,NW,315,2.0,4.0,67,0.00,,,0.00,meteohub,2013-03-07 10:13:00,
2013-03-07 05:19:00,46.8,36.3,30.17,West,270,2.0,3.0,67,0.00,,,0.00,meteohub,2013-03-07 10:19:00,
2013-03-07 05:24:00,46.6,36.1,30.16,North,0,2.0,6.0,67,0.00,,,0.00,meteohub,2013-03-07 10:24:00,
2013-03-07 05:29:00,46.4,36.0,30.17,South,180,2.0,6.0,67,0.00,,,0.00,meteohub,2013-03-07 10:29:00,
2013-03-07 05:34:00,46.4,36.0,30.17,SW,225,5.0,6.0,67,0.00,,,0.00,meteohub,2013-03-07 10:34:00,
2013-03-07 05:42:00,46.2,35.4,30.17,NW,315,6.0,6.0,66,0.00,,,0.00,meteohub,2013-03-07 10:42:00,
2013-03-07 05:47:00,46.2,35.4,30.17,NW,315,4.0,6.0,66,0.00,,,0.00,meteohub,2013-03-07 10:47:00,
2013-03-07 05:52:00,46.2,35.4,30.17,NW,315,2.0,6.0,66,0.00,,,0.00,meteohub,2013-03-07 10:52:00,
2013-03-07 05:57:00,46.2,35.1,30.17,West,270,2.0,6.0,65,0.00,,,0.00,meteohub,2013-03-07 10:57:00,
2013-03-07 06:02:00,46.2,35.1,30.18,NW,315,2.0,4.0,65,0.00,,,0.00,meteohub,2013-03-07 11:02:00,
2013-03-07 06:07:00,46.0,34.9,30.18,NW,315,4.0,4.0,65,0.00,,,0.00,meteohub,2013-03-07 11:07:00,
2013-03-07 06:13:00,46.0,34.9,30.18,North,0,2.0,4.0,65,0.00,,,0.00,meteohub,2013-03-07 11:13:00,
2013-03-07 06:18:00,45.9,35.1,30.19,West,270,2.0,4.0,66,0.00,,,0.00,meteohub,2013-03-07 11:18:00,
2013-03-07 06:23:00,45.7,35.1,30.19,South,180,3.0,4.0,66,0.00,,,0.00,meteohub,2013-03-07 11:23:00,
2013-03-07 06:28:00,45.7,34.5,30.19,West,270,2.0,4.0,65,0.00,,,0.00,meteohub,2013-03-07 11:28:00,
2013-03-07 06:34:00,45.7,35.1,30.20,SSW,203,3.0,4.0,66,0.00,,,0.00,meteohub,2013-03-07 11:34:00,
2013-03-07 06:39:00,45.3,34.7,30.20,West,270,2.0,4.0,66,0.00,,,0.00,meteohub,2013-03-07 11:39:00,
2013-03-07 06:45:00,45.1,34.5,30.20,North,0,2.0,4.0,66,0.00,,,0.00,meteohub,2013-03-07 11:45:00,
2013-03-07 06:50:00,45.1,34.5,30.20,West,270,3.0,4.0,66,0.00,,,0.00,meteohub,2013-03-07 11:50:00,
2013-03-07 06:55:00,45.1,34.5,30.20,WNW,293,3.0,4.0,66,0.00,,,0.00,meteohub,2013-03-07 11:55:00,
2013-03-07 07:00:00,45.1,34.5,30.21,WNW,293,5.0,5.0,66,0.00,,,0.00,meteohub,2013-03-07 12:00:00,
2013-03-07 07:05:00,45.7,35.1,30.21,WSW,248,2.0,5.0,66,0.00,,,0.00,meteohub,2013-03-07 12:05:00,
2013-03-07 07:11:00,46.9,36.1,30.21,NW,315,2.0,5.0,66,0.00,,,0.00,meteohub,2013-03-07 12:11:00,
2013-03-07 07:16:00,48.4,36.0,30.21,NW,315,2.0,12.0,62,0.00,,,0.00,meteohub,2013-03-07 12:16:00,
2013-03-07 07:21:00,49.5,35.8,30.21,South,180,2.0,12.0,59,0.00,,,0.00,meteohub,2013-03-07 12:21:00,
2013-03-07 07:26:00,50.4,35.8,30.22,South,180,4.0,12.0,57,0.00,,,0.00,meteohub,2013-03-07 12:26:00,
2013-03-07 07:31:00,51.3,36.1,30.22,NW,315,9.0,12.0,56,0.00,,,0.00,meteohub,2013-03-07 12:31:00,
2013-03-07 07:37:00,51.8,35.2,30.22,SW,225,4.0,9.0,53,0.00,,,0.00,meteohub,2013-03-07 12:37:00,
2013-03-07 07:42:00,52.2,35.6,30.22,NW,315,2.0,9.0,53,0.00,,,0.00,meteohub,2013-03-07 12:42:00,
2013-03-07 07:47:00,52.3,35.2,30.22,NW,315,8.0,9.0,52,0.00,,,0.00,meteohub,2013-03-07 12:47:00,
2013-03-07 07:52:00,52.9,35.8,30.22,SSW,203,5.0,10.0,52,0.00,,,0.00,meteohub,2013-03-07 12:52:00,
2013-03-07 07:57:00,53.4,36.3,30.22,NW,315,8.0,10.0,52,0.00,,,0.00,meteohub,2013-03-07 12:57:00,
2013-03-07 08:03:00,54.3,35.6,30.22,West,270,6.0,10.0,49,0.00,,,0.00,meteohub,2013-03-07 13:03:00,
2013-03-07 08:08:00,54.3,34.5,30.22,WNW,293,4.0,9.0,47,0.00,,,0.00,meteohub,2013-03-07 13:08:00,
2013-03-07 08:13:00,54.7,34.3,30.22,NW,315,3.0,11.0,46,0.00,,,0.00,meteohub,2013-03-07 13:13:00,
2013-03-07 08:18:00,55.6,35.1,30.22,West,270,4.0,11.0,46,0.00,,,0.00,meteohub,2013-03-07 13:18:00,
2013-03-07 08:23:00,56.7,36.1,30.22,NW,315,13.0,13.0,46,0.00,,,0.00,meteohub,2013-03-07 13:23:00,
2013-03-07 08:29:00,55.0,34.2,30.22,NE,45,4.0,8.0,45,0.00,,,0.00,meteohub,2013-03-07 13:29:00,
2013-03-07 08:34:00,55.2,33.6,30.23,NW,315,14.0,15.0,44,0.00,,,0.00,meteohub,2013-03-07 13:34:00,
2013-03-07 08:39:00,54.9,33.4,30.23,NNW,338,10.0,15.0,44,0.00,,,0.00,meteohub,2013-03-07 13:39:00,
2013-03-07 08:44:00,56.5,35.4,30.23,NW,315,6.0,15.0,45,0.00,,,0.00,meteohub,2013-03-07 13:44:00,
2013-03-07 08:50:00,57.2,34.9,30.23,NW,315,8.0,14.0,43,0.00,,,0.00,meteohub,2013-03-07 13:50:00,
2013-03-07 08:57:00,57.9,33.1,30.24,NW,315,2.0,11.0,39,0.00,,,0.00,meteohub,2013-03-07 13:57:00,
2013-03-07 09:02:00,58.5,33.6,30.24,NW,315,3.0,11.0,39,0.00,,,0.00,meteohub,2013-03-07 14:02:00,
2013-03-07 09:07:00,59.0,33.4,30.24,NW,315,10.0,10.0,38,0.00,,,0.00,meteohub,2013-03-07 14:07:00,
2013-03-07 09:12:00,59.7,33.4,30.24,North,0,2.0,10.0,37,0.00,,,0.00,meteohub,2013-03-07 14:12:00,
2013-03-07 09:17:00,60.6,32.9,30.25,East,90,2.0,10.0,35,0.00,,,0.00,meteohub,2013-03-07 14:17:00,
2013-03-07 09:22:00,60.8,32.2,30.25,East,90,6.0,10.0,34,0.00,,,0.00,meteohub,2013-03-07 14:22:00,
2013-03-07 09:28:00,59.5,31.8,30.25,South,180,6.0,8.0,35,0.00,,,0.00,meteohub,2013-03-07 14:28:00,
2013-03-07 09:33:00,60.4,32.7,30.25,South,180,6.0,15.0,35,0.00,,,0.00,meteohub,2013-03-07 14:33:00,
2013-03-07 09:38:00,61.0,31.6,30.25,NW,315,3.0,15.0,33,0.00,,,0.00,meteohub,2013-03-07 14:38:00,
2013-03-07 09:46:00,62.1,32.5,30.25,South,180,2.0,9.0,33,0.00,,,0.00,meteohub,2013-03-07 14:46:00,
2013-03-07 09:51:00,63.3,32.9,30.25,North,0,7.0,7.0,32,0.00,,,0.00,meteohub,2013-03-07 14:51:00,
2013-03-07 09:56:00,64.0,32.7,30.25,NNW,338,4.0,7.0,31,0.00,,,0.00,meteohub,2013-03-07 14:56:00,
2013-03-07 10:01:00,63.7,32.5,30.25,West,270,4.0,7.0,31,0.00,,,0.00,meteohub,2013-03-07 15:01:00,
2013-03-07 10:06:00,64.0,32.7,30.25,West,270,6.0,7.0,31,0.00,,,0.00,meteohub,2013-03-07 15:06:00,
2013-03-07 10:11:00,64.2,31.3,30.26,North,0,4.0,6.0,29,0.00,,,0.00,meteohub,2013-03-07 15:11:00,
2013-03-07 10:17:00,63.9,32.7,30.26,NW,315,2.0,6.0,31,0.00,,,0.00,meteohub,2013-03-07 15:17:00,
2013-03-07 10:22:00,64.6,32.4,30.26,North,0,8.0,8.0,30,0.00,,,0.00,meteohub,2013-03-07 15:22:00,
2013-03-07 10:27:00,64.4,32.4,30.26,NW,315,4.0,8.0,30,0.00,,,0.00,meteohub,2013-03-07 15:27:00,
2013-03-07 10:32:00,63.1,31.3,30.25,NW,315,2.0,8.0,30,0.00,,,0.00,meteohub,2013-03-07 15:32:00,
2013-03-07 10:38:00,64.4,33.1,30.26,North,0,2.0,8.0,31,0.00,,,0.00,meteohub,2013-03-07 15:38:00,
2013-03-07 10:43:00,65.3,31.3,30.25,NE,45,3.0,6.0,28,0.00,,,0.00,meteohub,2013-03-07 15:43:00,
2013-03-07 10:50:00,65.1,32.9,30.26,North,0,2.0,5.0,30,0.00,,,0.00,meteohub,2013-03-07 15:50:00,
2013-03-07 10:55:00,65.8,31.8,30.25,North,0,3.0,7.0,28,0.00,,,0.00,meteohub,2013-03-07 15:55:00,
2013-03-07 11:00:00,65.7,31.6,30.25,North,0,3.0,7.0,28,0.00,,,0.00,meteohub,2013-03-07 16:00:00,
2013-03-07 11:06:00,66.2,33.1,30.25,SSW,203,3.0,7.0,29,0.00,,,0.00,meteohub,2013-03-07 16:06:00,
2013-03-07 11:11:00,66.6,31.5,30.25,NW,315,4.0,6.0,27,0.00,,,0.00,meteohub,2013-03-07 16:11:00,
2013-03-07 11:16:00,67.3,32.2,30.25,NW,315,2.0,5.0,27,0.00,,,0.00,meteohub,2013-03-07 16:16:00,
2013-03-07 11:21:00,67.6,32.5,30.25,WNW,293,4.0,6.0,27,0.00,,,0.00,meteohub,2013-03-07 16:21:00,
2013-03-07 11:26:00,68.9,32.5,30.25,NW,315,3.0,6.0,26,0.00,,,0.00,meteohub,2013-03-07 16:26:00,
2013-03-07 11:32:00,69.1,30.7,30.25,NW,315,3.0,6.0,24,0.00,,,0.00,meteohub,2013-03-07 16:32:00,
2013-03-07 11:37:00,69.4,31.1,30.25,NE,45,2.0,6.0,24,0.00,,,0.00,meteohub,2013-03-07 16:37:00,
2013-03-07 11:42:00,68.4,31.1,30.25,West,270,3.0,6.0,25,0.00,,,0.00,meteohub,2013-03-07 16:42:00,
2013-03-07 11:47:00,68.5,31.3,30.25,North,0,2.0,6.0,25,0.00,,,0.00,meteohub,2013-03-07 16:47:00,
2013-03-07 11:52:00,68.4,30.2,30.25,West,270,2.0,8.0,24,0.00,,,0.00,meteohub,2013-03-07 16:52:00,
2013-03-07 11:57:00,68.7,32.4,30.24,SW,225,4.0,8.0,26,0.00,,,0.00,meteohub,2013-03-07 16:57:00,
2013-03-07 12:02:00,67.6,32.5,30.24,NW,315,2.0,8.0,27,0.00,,,0.00,meteohub,2013-03-07 17:02:00,
2013-03-07 12:07:00,68.4,31.1,30.24,West,270,4.0,9.0,25,0.00,,,0.00,meteohub,2013-03-07 17:07:00,
2013-03-07 12:12:00,68.5,32.4,30.24,South,180,7.0,9.0,26,0.00,,,0.00,meteohub,2013-03-07 17:12:00,
2013-03-07 12:17:00,68.4,34.0,30.24,West,270,2.0,9.0,28,0.00,,,0.00,meteohub,2013-03-07 17:17:00,
2013-03-07 12:22:00,69.6,31.3,30.23,NE,45,3.0,7.0,24,0.00,,,0.00,meteohub,2013-03-07 17:22:00,
2013-03-07 12:27:00,70.9,30.2,30.23,South,180,3.0,7.0,22,0.00,,,0.00,meteohub,2013-03-07 17:27:00,
2013-03-07 12:32:00,70.9,31.3,30.23,East,90,6.0,6.0,23,0.00,,,0.00,meteohub,2013-03-07 17:32:00,
2013-03-07 12:37:00,70.5,30.9,30.23,NW,315,3.0,7.0,23,0.00,,,0.00,meteohub,2013-03-07 17:37:00,
2013-03-07 12:42:00,70.9,30.2,30.22,NNW,338,2.0,8.0,22,0.00,,,0.00,meteohub,2013-03-07 17:42:00,
2013-03-07 12:47:00,72.1,31.1,30.23,SE,135,2.0,8.0,22,0.00,,,0.00,meteohub,2013-03-07 17:47:00,
2013-03-07 12:52:00,73.6,33.4,30.22,South,180,2.0,5.0,23,0.00,,,0.00,meteohub,2013-03-07 17:52:00,
2013-03-07 12:57:00,73.6,31.3,30.22,NW,315,3.0,4.0,21,0.00,,,0.00,meteohub,2013-03-07 17:57:00,
2013-03-07 13:02:00,73.4,33.3,30.22,South,180,6.0,6.0,23,0.00,,,0.00,meteohub,2013-03-07 18:02:00,
2013-03-07 13:07:00,72.5,26.6,30.22,SW,225,2.0,4.0,18,0.00,,,0.00,meteohub,2013-03-07 18:07:00,
2013-03-07 13:13:00,71.4,30.6,30.22,SW,225,6.0,8.0,22,0.00,,,0.00,meteohub,2013-03-07 18:13:00,
2013-03-07 13:21:00,70.7,28.8,30.22,West,270,7.0,8.0,21,0.00,,,0.00,meteohub,2013-03-07 18:21:00,
2013-03-07 13:26:00,71.1,33.4,30.21,North,0,3.0,9.0,25,0.00,,,0.00,meteohub,2013-03-07 18:26:00,
2013-03-07 13:31:00,71.8,29.7,30.21,NW,315,2.0,9.0,21,0.00,,,0.00,meteohub,2013-03-07 18:31:00,
2013-03-07 13:36:00,72.7,30.6,30.20,SSW,203,6.0,9.0,21,0.00,,,0.00,meteohub,2013-03-07 18:36:00,
2013-03-07 13:41:00,73.2,30.9,30.20,SW,225,2.0,6.0,21,0.00,,,0.00,meteohub,2013-03-07 18:41:00,
2013-03-07 13:46:00,73.8,30.2,30.20,SW,225,3.0,6.0,20,0.00,,,0.00,meteohub,2013-03-07 18:46:00,
2013-03-07 13:51:00,73.0,28.4,30.20,NW,315,2.0,7.0,19,0.00,,,0.00,meteohub,2013-03-07 18:51:00,
2013-03-07 13:57:00,73.0,25.7,30.20,South,180,4.0,9.0,17,0.00,,,0.00,meteohub,2013-03-07 18:57:00,
2013-03-07 14:02:00,73.9,33.8,30.19,WNW,293,6.0,9.0,23,0.00,,,0.00,meteohub,2013-03-07 19:02:00,
2013-03-07 14:07:00,73.8,27.7,30.19,North,0,4.0,9.0,18,0.00,,,0.00,meteohub,2013-03-07 19:07:00,
2013-03-07 14:12:00,73.2,22.8,30.19,South,180,6.0,9.0,15,0.00,,,0.00,meteohub,2013-03-07 19:12:00,
2013-03-07 14:17:00,73.4,31.1,30.18,West,270,9.0,9.0,21,0.00,,,0.00,meteohub,2013-03-07 19:17:00,
2013-03-07 14:22:00,73.6,31.3,30.18,SW,225,3.0,9.0,21,0.00,,,0.00,meteohub,2013-03-07 19:22:00,
2013-03-07 14:27:00,74.1,29.3,30.18,SW,225,2.0,9.0,19,0.00,,,0.00,meteohub,2013-03-07 19:27:00,
2013-03-07 14:32:00,75.4,26.1,30.17,West,270,2.0,9.0,16,0.00,,,0.00,meteohub,2013-03-07 19:32:00,
2013-03-07 14:37:00,75.7,29.3,30.17,North,0,6.0,8.0,18,0.00,,,0.00,meteohub,2013-03-07 19:37:00,
2013-03-07 14:42:00,75.9,26.4,30.17,NE,45,4.0,8.0,16,0.00,,,0.00,meteohub,2013-03-07 19:42:00,
2013-03-07 14:47:00,75.9,26.4,30.18,West,270,2.0,7.0,16,0.00,,,0.00,meteohub,2013-03-07 19:47:00,
2013-03-07 14:52:00,76.6,30.0,30.17,SSW,203,8.0,8.0,18,0.00,,,0.00,meteohub,2013-03-07 19:52:00,
2013-03-07 14:57:00,76.3,26.8,30.17,SE,135,4.0,8.0,16,0.00,,,0.00,meteohub,2013-03-07 19:57:00,
2013-03-07 15:02:00,76.3,26.8,30.17,SW,225,2.0,8.0,16,0.00,,,0.00,meteohub,2013-03-07 20:02:00,
2013-03-07 15:07:00,77.2,24.3,30.17,SSE,158,4.0,8.0,14,0.00,,,0.00,meteohub,2013-03-07 20:07:00,
2013-03-07 15:14:00,77.2,27.5,30.17,WNW,293,4.0,8.0,16,0.00,,,0.00,meteohub,2013-03-07 20:14:00,
2013-03-07 15:19:00,78.1,25.0,30.17,SE,135,4.0,8.0,14,0.00,,,0.00,meteohub,2013-03-07 20:19:00,
2013-03-07 15:27:00,78.6,27.1,30.17,NW,315,2.0,4.0,15,0.00,,,0.00,meteohub,2013-03-07 20:27:00,
2013-03-07 15:32:00,74.3,37.2,30.17,SW,225,8.0,11.0,26,0.00,,,0.00,meteohub,2013-03-07 20:32:00,
2013-03-07 15:37:00,72.3,39.2,30.17,South,180,5.0,12.0,30,0.00,,,0.00,meteohub,2013-03-07 20:37:00,
2013-03-07 15:42:00,72.0,37.9,30.17,SW,225,5.0,12.0,29,0.00,,,0.00,meteohub,2013-03-07 20:42:00,
2013-03-07 15:47:00,71.2,39.9,30.17,South,180,8.0,12.0,32,0.00,,,0.00,meteohub,2013-03-07 20:47:00,
2013-03-07 15:52:00,70.9,40.3,30.17,South,180,8.0,12.0,33,0.00,,,0.00,meteohub,2013-03-07 20:52:00,
2013-03-07 15:57:00,70.9,39.6,30.17,SW,225,9.0,12.0,32,0.00,,,0.00,meteohub,2013-03-07 20:57:00,
2013-03-07 16:02:00,70.3,39.0,30.17,NE,45,6.0,12.0,32,0.00,,,0.00,meteohub,2013-03-07 21:02:00,
2013-03-07 16:07:00,70.7,40.1,30.17,South,180,8.0,12.0,33,0.00,,,0.00,meteohub,2013-03-07 21:07:00,
2013-03-07 16:12:00,69.4,40.6,30.17,SW,225,10.0,11.0,35,0.00,,,0.00,meteohub,2013-03-07 21:12:00,
2013-03-07 16:17:00,69.6,41.5,30.17,SW,225,6.0,11.0,36,0.00,,,0.00,meteohub,2013-03-07 21:17:00,
2013-03-07 16:22:00,70.3,41.4,30.17,South,180,11.0,11.0,35,0.00,,,0.00,meteohub,2013-03-07 21:22:00,
2013-03-07 16:27:00,68.9,41.5,30.18,SW,225,10.0,13.0,37,0.00,,,0.00,meteohub,2013-03-07 21:27:00,
2013-03-07 16:32:00,68.7,42.1,30.17,NW,315,10.0,14.0,38,0.00,,,0.00,meteohub,2013-03-07 21:32:00,
2013-03-07 16:38:00,69.1,41.7,30.18,SW,225,8.0,14.0,37,0.00,,,0.00,meteohub,2013-03-07 21:38:00,
2013-03-07 16:43:00,68.7,42.8,30.18,SW,225,8.0,14.0,39,0.00,,,0.00,meteohub,2013-03-07 21:43:00,
2013-03-07 16:51:00,69.1,43.2,30.18,SW,225,9.0,11.0,39,0.00,,,0.00,meteohub,2013-03-07 21:51:00,
2013-03-07 16:56:00,67.8,43.3,30.18,SW,225,10.0,11.0,41,0.00,,,0.00,meteohub,2013-03-07 21:56:00,
2013-03-07 17:01:00,68.0,43.3,30.18,West,270,9.0,10.0,41,0.00,,,0.00,meteohub,2013-03-07 22:01:00,
2013-03-07 17:07:00,67.1,44.4,30.18,NW,315,14.0,14.0,44,0.00,,,0.00,meteohub,2013-03-07 22:07:00,
2013-03-07 17:12:00,66.2,43.7,30.18,SW,225,9.0,14.0,44,0.00,,,0.00,meteohub,2013-03-07 22:12:00,
2013-03-07 17:17:00,65.8,44.4,30.18,SW,225,8.0,14.0,46,0.00,,,0.00,meteohub,2013-03-07 22:17:00,
2013-03-07 17:22:00,66.2,44.2,30.18,NW,315,5.0,14.0,45,0.00,,,0.00,meteohub,2013-03-07 22:22:00,
2013-03-07 17:27:00,66.2,44.8,30.18,NW,315,9.0,14.0,46,0.00,,,0.00,meteohub,2013-03-07 22:27:00,
2013-03-07 17:32:00,65.1,45.0,30.18,SW,225,7.0,14.0,48,0.00,,,0.00,meteohub,2013-03-07 22:32:00,
2013-03-07 17:39:00,64.8,45.7,30.18,SW,225,5.0,10.0,50,0.00,,,0.00,meteohub,2013-03-07 22:39:00,
2013-03-07 17:44:00,64.0,46.0,30.18,West,270,11.0,11.0,52,0.00,,,0.00,meteohub,2013-03-07 22:44:00,
2013-03-07 17:49:00,63.3,45.3,30.19,SW,225,8.0,12.0,52,0.00,,,0.00,meteohub,2013-03-07 22:49:00,
2013-03-07 17:54:00,63.3,45.9,30.19,South,180,6.0,12.0,53,0.00,,,0.00,meteohub,2013-03-07 22:54:00,
2013-03-07 18:00:00,63.0,45.5,30.19,SW,225,8.0,12.0,53,0.00,,,0.00,meteohub,2013-03-07 23:00:00,
2013-03-07 18:05:00,62.2,46.4,30.19,SE,135,9.0,11.0,56,0.00,,,0.00,meteohub,2013-03-07 23:05:00,
2013-03-07 18:10:00,61.0,45.7,30.19,SSW,203,8.0,10.0,57,0.00,,,0.00,meteohub,2013-03-07 23:10:00,
2013-03-07 18:15:00,60.1,46.2,30.19,SW,225,7.0,9.0,60,0.00,,,0.00,meteohub,2013-03-07 23:15:00,
2013-03-07 18:20:00,59.4,46.4,30.19,SW,225,9.0,9.0,62,0.00,,,0.00,meteohub,2013-03-07 23:20:00,
2013-03-07 18:25:00,59.0,46.4,30.19,NW,315,7.0,11.0,63,0.00,,,0.00,meteohub,2013-03-07 23:25:00,
2013-03-07 18:31:00,58.6,46.6,30.19,SW,225,7.0,11.0,64,0.00,,,0.00,meteohub,2013-03-07 23:31:00,
2013-03-07 18:36:00,58.3,46.6,30.20,SSW,203,4.0,11.0,65,0.00,,,0.00,meteohub,2013-03-07 23:36:00,
2013-03-07 18:42:00,58.1,46.8,30.20,SW,225,4.0,9.0,66,0.00,,,0.00,meteohub,2013-03-07 23:42:00,
2013-03-07 18:47:00,57.9,46.6,30.20,SSE,158,4.0,9.0,66,0.00,,,0.00,meteohub,2013-03-07 23:47:00,
2013-03-07 18:53:00,57.7,46.4,30.20,West,270,5.0,9.0,66,0.00,,,0.00,meteohub,2013-03-07 23:53:00,
2013-03-07 18:59:00,57.6,46.8,30.20,SW,225,4.0,9.0,67,0.00,,,0.00,meteohub,2013-03-07 23:59:00,
2013-03-07 19:06:00,57.4,46.9,30.20,SW,225,4.0,9.0,68,0.00,,,0.00,meteohub,2013-03-08 00:06:00,
2013-03-07 19:12:00,57.2,47.1,30.20,SW,225,8.0,8.0,69,0.00,,,0.00,meteohub,2013-03-08 00:12:00,
2013-03-07 19:17:00,57.0,46.9,30.21,SW,225,3.0,8.0,69,0.00,,,0.00,meteohub,2013-03-08 00:17:00,
2013-03-07 19:22:00,56.8,47.1,30.21,SW,225,4.0,8.0,70,0.00,,,0.00,meteohub,2013-03-08 00:22:00,
2013-03-07 19:27:00,56.8,47.5,30.21,SW,225,8.0,8.0,71,0.00,,,0.00,meteohub,2013-03-08 00:27:00,
2013-03-07 19:32:00,56.8,47.5,30.21,SE,135,5.0,8.0,71,0.00,,,0.00,meteohub,2013-03-08 00:32:00,
2013-03-07 19:37:00,56.8,47.5,30.21,South,180,8.0,8.0,71,0.00,,,0.00,meteohub,2013-03-08 00:37:00,
2013-03-07 19:42:00,56.8,47.8,30.22,SW,225,4.0,8.0,72,0.00,,,0.00,meteohub,2013-03-08 00:42:00,
2013-03-07 19:48:00,56.7,48.0,30.22,SW,225,4.0,8.0,73,0.00,,,0.00,meteohub,2013-03-08 00:48:00,
2013-03-07 19:54:00,56.7,48.0,30.22,WNW,293,4.0,8.0,73,0.00,,,0.00,meteohub,2013-03-08 00:54:00,
2013-03-07 20:00:00,56.5,48.7,30.22,SSW,203,4.0,7.0,75,0.00,,,0.00,meteohub,2013-03-08 01:00:00,
2013-03-07 20:05:00,56.3,48.6,30.22,SW,225,3.0,7.0,75,0.00,,,0.00,meteohub,2013-03-08 01:05:00,
2013-03-07 20:10:00,56.1,48.7,30.22,SW,225,4.0,5.0,76,0.00,,,0.00,meteohub,2013-03-08 01:10:00,
2013-03-07 20:15:00,56.1,48.7,30.22,South,180,2.0,7.0,76,0.00,,,0.00,meteohub,2013-03-08 01:15:00,
2013-03-07 20:20:00,56.1,48.7,30.22,SW,225,2.0,7.0,76,0.00,,,0.00,meteohub,2013-03-08 01:20:00,
2013-03-07 20:25:00,56.1,48.9,30.22,SW,225,4.0,6.0,77,0.00,,,0.00,meteohub,2013-03-08 01:25:00,
2013-03-07 20:31:00,55.9,48.9,30.23,South,180,3.0,5.0,77,0.00,,,0.00,meteohub,2013-03-08 01:31:00,
2013-03-07 20:36:00,55.9,48.9,30.23,South,180,5.0,5.0,77,0.00,,,0.00,meteohub,2013-03-08 01:36:00,
2013-03-07 20:41:00,55.9,48.9,30.23,WSW,248,6.0,6.0,77,0.00,,,0.00,meteohub,2013-03-08 01:41:00,
2013-03-07 20:46:00,55.9,48.6,30.23,SW,225,3.0,6.0,76,0.00,,,0.00,meteohub,2013-03-08 01:46:00,
2013-03-07 20:51:00,55.9,48.2,30.23,South,180,5.0,7.0,75,0.00,,,0.00,meteohub,2013-03-08 01:51:00,
2013-03-07 20:56:00,55.9,48.2,30.23,SW,225,6.0,8.0,75,0.00,,,0.00,meteohub,2013-03-08 01:56:00,
2013-03-07 21:02:00,55.9,47.8,30.23,SW,225,3.0,8.0,74,0.00,,,0.00,meteohub,2013-03-08 02:02:00,
2013-03-07 21:09:00,55.8,47.3,30.23,SW,225,7.0,8.0,73,0.00,,,0.00,meteohub,2013-03-08 02:09:00,
2013-03-07 21:15:00,55.4,46.9,30.23,West,270,2.0,7.0,73,0.00,,,0.00,meteohub,2013-03-08 02:15:00,
2013-03-07 21:20:00,55.0,46.9,30.24,West,270,2.0,7.0,74,0.00,,,0.00,meteohub,2013-03-08 02:20:00,
2013-03-07 21:25:00,54.9,46.8,30.24,SW,225,4.0,7.0,74,0.00,,,0.00,meteohub,2013-03-08 02:25:00,
2013-03-07 21:30:00,54.9,47.1,30.24,West,270,1.0,7.0,75,0.00,,,0.00,meteohub,2013-03-08 02:30:00,
2013-03-07 21:35:00,54.7,46.9,30.24,SW,225,2.0,7.0,75,0.00,,,0.00,meteohub,2013-03-08 02:35:00,
2013-03-07 21:40:00,54.5,46.8,30.24,SW,225,4.0,7.0,75,0.00,,,0.00,meteohub,2013-03-08 02:40:00,
2013-03-07 21:47:00,54.3,46.6,30.24,South,180,2.0,5.0,75,0.00,,,0.00,meteohub,2013-03-08 02:47:00,
2013-03-07 21:52:00,54.0,46.6,30.24,NW,315,0.0,5.0,76,0.00,,,0.00,meteohub,2013-03-08 02:52:00,
2013-03-07 21:57:00,53.6,46.2,30.24,SW,225,3.0,5.0,76,0.00,,,0.00,meteohub,2013-03-08 02:57:00,
2013-03-07 22:02:00,53.6,46.9,30.24,WNW,293,2.0,3.0,78,0.00,,,0.00,meteohub,2013-03-08 03:02:00,
2013-03-07 22:07:00,53.6,46.9,30.24,West,270,1.0,7.0,78,0.00,,,0.00,meteohub,2013-03-08 03:07:00,
2013-03-07 22:12:00,53.2,46.9,30.24,South,180,2.0,7.0,79,0.00,,,0.00,meteohub,2013-03-08 03:12:00,
2013-03-07 22:17:00,53.2,47.3,30.24,NW,315,0.0,4.0,80,0.00,,,0.00,meteohub,2013-03-08 03:17:00,
2013-03-07 22:22:00,52.9,46.9,30.24,NW,315,0.0,4.0,80,0.00,,,0.00,meteohub,2013-03-08 03:22:00,
2013-03-07 22:27:00,52.5,46.6,30.24,South,180,1.0,4.0,80,0.00,,,0.00,meteohub,2013-03-08 03:27:00,
2013-03-07 22:34:00,52.3,46.4,30.24,North,0,0.0,2.0,80,0.00,,,0.00,meteohub,2013-03-08 03:34:00,
2013-03-07 22:39:00,51.6,46.2,30.23,SW,225,0.0,1.0,82,0.00,,,0.00,meteohub,2013-03-08 03:39:00,
2013-03-07 22:44:00,51.4,46.4,30.23,NW,315,1.0,1.0,83,0.00,,,0.00,meteohub,2013-03-08 03:44:00,
2013-03-07 22:49:00,51.4,46.4,30.24,West,270,1.0,2.0,83,0.00,,,0.00,meteohub,2013-03-08 03:49:00,
2013-03-07 22:54:00,51.6,46.9,30.23,NW,315,0.0,4.0,84,0.00,,,0.00,meteohub,2013-03-08 03:54:00,
2013-03-07 23:00:00,51.6,46.9,30.23,NW,315,0.0,4.0,84,0.00,,,0.00,meteohub,2013-03-08 04:00:00,
2013-03-07 23:05:00,51.6,46.9,30.23,NW,315,0.0,4.0,84,0.00,,,0.00,meteohub,2013-03-08 04:05:00,
2013-03-07 23:10:00,51.6,46.9,30.23,WNW,293,2.0,2.0,84,0.00,,,0.00,meteohub,2013-03-08 04:10:00,
2013-03-07 23:15:00,51.6,46.6,30.23,SW,225,4.0,4.0,83,0.00,,,0.00,meteohub,2013-03-08 04:15:00,
2013-03-07 23:20:00,51.6,46.2,30.23,North,0,1.0,4.0,82,0.00,,,0.00,meteohub,2013-03-08 04:20:00,
2013-03-07 23:25:00,51.6,46.2,30.24,NW,315,2.0,4.0,82,0.00,,,0.00,meteohub,2013-03-08 04:25:00,
2013-03-07 23:30:00,51.4,45.9,30.23,NW,315,1.0,4.0,81,0.00,,,0.00,meteohub,2013-03-08 04:30:00,
2013-03-07 23:36:00,51.4,45.9,30.23,West,270,2.0,3.0,81,0.00,,,0.00,meteohub,2013-03-08 04:36:00,
2013-03-07 23:41:00,51.4,45.9,30.23,West,270,1.0,3.0,81,0.00,,,0.00,meteohub,2013-03-08 04:41:00,
2013-03-07 23:47:00,51.4,45.5,30.23,NW,315,0.0,3.0,80,0.00,,,0.00,meteohub,2013-03-08 04:47:00,
2013-03-07 23:52:00,51.3,45.3,30.23,NW,315,1.0,3.0,80,0.00,,,0.00,meteohub,2013-03-08 04:52:00,
2013-03-07 23:57:00,51.3,45.3,30.23,NW,315,2.0,3.0,80,0.00,,,0.00,meteohub,2013-03-08 04:57:00,